sensor_id;sensor_type;location;lat;lon;timestamp;P1;durP1;ratioP1;P2;durP2;ratioP2
18647;SDS011;9453;50.294;18.644;2024-01-30T05:03:27;17.03;;;4.07;;
18647;SDS011;9453;50.294;18.644;2024-01-30T05:05:54;12.57;;;4.37;;
18647;SDS011;9453;50.294;18.644;2024-01-30T05:08:21;10.73;;;4.20;;
18647;SDS011;9453;50.294;18.644;2024-01-30T05:10:49;8.67;;;4.10;;
18647;SDS011;9453;50.294;18.644;2024-01-30T05:13:16;8.27;;;4.43;;
18647;SDS011;9453;50.294;18.644;2024-01-30T05:15:43;12.77;;;4.40;;
18647;SDS011;9453;50.294;18.644;2024-01-30T05:18:10;8.53;;;4.47;;
18647;SDS011;9453;50.294;18.644;2024-01-30T05:20:38;10.37;;;4.30;;
18647;SDS011;9453;50.294;18.644;2024-01-30T05:23:05;10.37;;;4.80;;
18647;SDS011;9453;50.294;18.644;2024-01-30T05:25:33;11.50;;;4.80;;
18647;SDS011;9453;50.294;18.644;2024-01-30T05:27:59;11.80;;;4.17;;
18647;SDS011;9453;50.294;18.644;2024-01-30T05:30:26;13.57;;;5.20;;
18647;SDS011;9453;50.294;18.644;2024-01-30T05:32:53;17.00;;;7.10;;
18647;SDS011;9453;50.294;18.644;2024-01-30T05:35:20;15.37;;;6.53;;
18647;SDS011;9453;50.294;18.644;2024-01-30T05:37:49;18.60;;;7.07;;
18647;SDS011;9453;50.294;18.644;2024-01-30T05:40:16;15.20;;;5.90;;
18647;SDS011;9453;50.294;18.644;2024-01-30T05:42:43;15.93;;;6.57;;
18647;SDS011;9453;50.294;18.644;2024-01-30T05:45:10;14.97;;;6.27;;
18647;SDS011;9453;50.294;18.644;2024-01-30T05:47:37;12.47;;;5.53;;
18647;SDS011;9453;50.294;18.644;2024-01-30T05:50:04;12.40;;;5.37;;
18647;SDS011;9453;50.294;18.644;2024-01-30T05:52:32;11.57;;;5.40;;
18647;SDS011;9453;50.294;18.644;2024-01-30T05:55:00;10.93;;;5.00;;
18647;SDS011;9453;50.294;18.644;2024-01-30T05:57:27;8.80;;;4.67;;
18647;SDS011;9453;50.294;18.644;2024-01-30T05:59:54;11.30;;;4.47;;
18647;SDS011;9453;50.294;18.644;2024-01-30T06:02:21;12.20;;;4.40;;
18647;SDS011;9453;50.294;18.644;2024-01-30T06:04:48;10.80;;;4.70;;
18647;SDS011;9453;50.294;18.644;2024-01-30T06:07:15;14.53;;;5.33;;
18647;SDS011;9453;50.294;18.644;2024-01-30T06:09:42;14.40;;;5.43;;
18647;SDS011;9453;50.294;18.644;2024-01-30T06:12:12;13.43;;;4.93;;
18647;SDS011;9453;50.294;18.644;2024-01-30T06:14:39;12.63;;;5.67;;
18647;SDS011;9453;50.294;18.644;2024-01-30T06:17:07;14.37;;;5.53;;
18647;SDS011;9453;50.294;18.644;2024-01-30T06:19:34;13.80;;;4.90;;
18647;SDS011;9453;50.294;18.644;2024-01-30T06:22:02;10.90;;;4.97;;
18647;SDS011;9453;50.294;18.644;2024-01-30T06:24:29;11.07;;;5.00;;
18647;SDS011;9453;50.294;18.644;2024-01-30T06:26:56;11.97;;;5.00;;
18647;SDS011;9453;50.294;18.644;2024-01-30T06:29:25;11.97;;;5.03;;
18647;SDS011;9453;50.294;18.644;2024-01-30T06:31:52;9.53;;;5.07;;
18647;SDS011;9453;50.294;18.644;2024-01-30T06:34:19;11.33;;;5.10;;
18647;SDS011;9453;50.294;18.644;2024-01-30T06:36:46;12.37;;;5.43;;
18647;SDS011;9453;50.294;18.644;2024-01-30T06:39:13;15.77;;;5.50;;
18647;SDS011;9453;50.294;18.644;2024-01-30T06:41:40;13.33;;;5.70;;
18647;SDS011;9453;50.294;18.644;2024-01-30T06:44:07;17.70;;;6.17;;
18647;SDS011;9453;50.294;18.644;2024-01-30T06:46:35;14.93;;;5.63;;
18647;SDS011;9453;50.294;18.644;2024-01-30T06:49:03;13.10;;;5.87;;
18647;SDS011;9453;50.294;18.644;2024-01-30T06:51:30;19.93;;;6.23;;
18647;SDS011;9453;50.294;18.644;2024-01-30T06:53:57;13.93;;;6.23;;
18647;SDS011;9453;50.294;18.644;2024-01-30T06:56:24;22.17;;;6.20;;
18647;SDS011;9453;50.294;18.644;2024-01-30T06:58:51;16.00;;;6.50;;
18647;SDS011;9453;50.294;18.644;2024-01-30T07:01:18;14.73;;;6.53;;
18647;SDS011;9453;50.294;18.644;2024-01-30T07:03:46;18.87;;;6.93;;
18647;SDS011;9453;50.294;18.644;2024-01-30T07:06:13;18.40;;;8.17;;
18647;SDS011;9453;50.294;18.644;2024-01-30T07:08:40;18.37;;;8.03;;
18647;SDS011;9453;50.294;18.644;2024-01-30T07:11:07;17.03;;;7.87;;
18647;SDS011;9453;50.294;18.644;2024-01-30T07:13:34;12.67;;;5.77;;
18647;SDS011;9453;50.294;18.644;2024-01-30T07:16:01;15.60;;;6.00;;
18647;SDS011;9453;50.294;18.644;2024-01-30T07:18:28;14.27;;;5.73;;
18647;SDS011;9453;50.294;18.644;2024-01-30T07:20:56;13.13;;;5.33;;
18647;SDS011;9453;50.294;18.644;2024-01-30T07:23:23;12.47;;;5.33;;
18647;SDS011;9453;50.294;18.644;2024-01-30T07:25:50;17.63;;;5.97;;
18647;SDS011;9453;50.294;18.644;2024-01-30T07:28:17;13.07;;;5.87;;
18647;SDS011;9453;50.294;18.644;2024-01-30T07:30:44;13.53;;;5.13;;
18647;SDS011;9453;50.294;18.644;2024-01-30T07:33:12;12.37;;;4.80;;
18647;SDS011;9453;50.294;18.644;2024-01-30T07:35:39;11.03;;;4.43;;
18647;SDS011;9453;50.294;18.644;2024-01-30T07:38:07;10.17;;;4.03;;
18647;SDS011;9453;50.294;18.644;2024-01-30T07:40:34;11.77;;;4.67;;
18647;SDS011;9453;50.294;18.644;2024-01-30T07:43:01;13.93;;;5.03;;
18647;SDS011;9453;50.294;18.644;2024-01-30T07:45:29;14.13;;;5.57;;
18647;SDS011;9453;50.294;18.644;2024-01-30T07:47:58;16.77;;;5.60;;
18647;SDS011;9453;50.294;18.644;2024-01-30T07:50:25;11.53;;;4.87;;
18647;SDS011;9453;50.294;18.644;2024-01-30T07:52:52;12.20;;;4.93;;
18647;SDS011;9453;50.294;18.644;2024-01-30T07:55:21;12.73;;;4.57;;
18647;SDS011;9453;50.294;18.644;2024-01-30T07:57:49;12.60;;;5.00;;
18647;SDS011;9453;50.294;18.644;2024-01-30T08:00:18;9.77;;;4.80;;
18647;SDS011;9453;50.294;18.644;2024-01-30T08:02:47;11.30;;;4.93;;
18647;SDS011;9453;50.294;18.644;2024-01-30T08:05:14;12.87;;;5.00;;
18647;SDS011;9453;50.294;18.644;2024-01-30T08:07:41;10.30;;;5.33;;
18647;SDS011;9453;50.294;18.644;2024-01-30T08:10:08;11.10;;;5.33;;
18647;SDS011;9453;50.294;18.644;2024-01-30T08:12:39;9.70;;;4.40;;
18647;SDS011;9453;50.294;18.644;2024-01-30T08:15:06;14.07;;;5.60;;
18647;SDS011;9453;50.294;18.644;2024-01-30T08:17:34;15.97;;;6.27;;
18647;SDS011;9453;50.294;18.644;2024-01-30T08:20:00;13.40;;;5.27;;
18647;SDS011;9453;50.294;18.644;2024-01-30T08:22:29;12.27;;;5.20;;
18647;SDS011;9453;50.294;18.644;2024-01-30T08:24:56;15.03;;;5.53;;
18647;SDS011;9453;50.294;18.644;2024-01-30T08:27:23;10.97;;;5.00;;
18647;SDS011;9453;50.294;18.644;2024-01-30T08:29:51;9.33;;;4.27;;
18647;SDS011;9453;50.294;18.644;2024-01-30T08:32:18;14.67;;;5.40;;
18647;SDS011;9453;50.294;18.644;2024-01-30T08:34:45;13.30;;;5.50;;
18647;SDS011;9453;50.294;18.644;2024-01-30T08:37:12;13.07;;;5.30;;
18647;SDS011;9453;50.294;18.644;2024-01-30T08:39:41;22.97;;;6.23;;
18647;SDS011;9453;50.294;18.644;2024-01-30T08:42:08;14.03;;;5.43;;
18647;SDS011;9453;50.294;18.644;2024-01-30T08:44:35;14.83;;;5.00;;
18647;SDS011;9453;50.294;18.644;2024-01-30T08:47:04;16.07;;;5.67;;
18647;SDS011;9453;50.294;18.644;2024-01-30T08:49:31;12.90;;;4.97;;
18647;SDS011;9453;50.294;18.644;2024-01-30T08:51:58;12.37;;;5.37;;
18647;SDS011;9453;50.294;18.644;2024-01-30T08:54:24;15.40;;;5.27;;
18647;SDS011;9453;50.294;18.644;2024-01-30T08:56:51;13.40;;;5.43;;
18647;SDS011;9453;50.294;18.644;2024-01-30T08:59:18;11.63;;;5.00;;
18647;SDS011;9453;50.294;18.644;2024-01-30T09:01:45;11.50;;;4.27;;
18647;SDS011;9453;50.294;18.644;2024-01-30T09:04:14;11.37;;;5.53;;
18647;SDS011;9453;50.294;18.644;2024-01-30T09:06:41;12.27;;;4.87;;
18647;SDS011;9453;50.294;18.644;2024-01-30T09:09:08;11.10;;;4.77;;
18647;SDS011;9453;50.294;18.644;2024-01-30T09:11:35;12.57;;;4.57;;
18647;SDS011;9453;50.294;18.644;2024-01-30T09:14:02;10.07;;;4.60;;
18647;SDS011;9453;50.294;18.644;2024-01-30T09:16:29;12.53;;;4.90;;
18647;SDS011;9453;50.294;18.644;2024-01-30T09:18:56;9.53;;;4.03;;
18647;SDS011;9453;50.294;18.644;2024-01-30T09:21:24;10.77;;;4.70;;
18647;SDS011;9453;50.294;18.644;2024-01-30T09:23:52;12.77;;;4.20;;
18647;SDS011;9453;50.294;18.644;2024-01-30T09:26:20;12.73;;;4.57;;
18647;SDS011;9453;50.294;18.644;2024-01-30T09:28:47;13.70;;;4.80;;
18647;SDS011;9453;50.294;18.644;2024-01-30T09:31:14;13.33;;;4.87;;
18647;SDS011;9453;50.294;18.644;2024-01-30T09:33:41;13.17;;;5.03;;
18647;SDS011;9453;50.294;18.644;2024-01-30T09:36:09;10.87;;;4.53;;
18647;SDS011;9453;50.294;18.644;2024-01-30T09:38:37;10.23;;;4.57;;
18647;SDS011;9453;50.294;18.644;2024-01-30T09:41:04;11.80;;;4.47;;
18647;SDS011;9453;50.294;18.644;2024-01-30T09:43:36;9.47;;;4.57;;
18647;SDS011;9453;50.294;18.644;2024-01-30T09:46:04;11.07;;;4.97;;
18647;SDS011;9453;50.294;18.644;2024-01-30T09:48:32;8.30;;;4.43;;
18647;SDS011;9453;50.294;18.644;2024-01-30T09:50:59;9.50;;;4.53;;
18647;SDS011;9453;50.294;18.644;2024-01-30T09:53:27;8.83;;;4.23;;
18647;SDS011;9453;50.294;18.644;2024-01-30T09:55:56;10.43;;;5.10;;
18647;SDS011;9453;50.294;18.644;2024-01-30T09:58:23;17.07;;;5.87;;
18647;SDS011;9453;50.294;18.644;2024-01-30T10:00:51;10.67;;;5.37;;
18647;SDS011;9453;50.294;18.644;2024-01-30T10:03:18;13.97;;;5.10;;
18647;SDS011;9453;50.294;18.644;2024-01-30T10:05:46;11.13;;;4.77;;
18647;SDS011;9453;50.294;18.644;2024-01-30T10:08:18;12.27;;;5.23;;
18647;SDS011;9453;50.294;18.644;2024-01-30T10:10:45;14.03;;;5.57;;
18647;SDS011;9453;50.294;18.644;2024-01-30T10:13:14;12.27;;;5.23;;
18647;SDS011;9453;50.294;18.644;2024-01-30T10:15:41;12.87;;;4.97;;
18647;SDS011;9453;50.294;18.644;2024-01-30T10:18:08;12.47;;;4.80;;
18647;SDS011;9453;50.294;18.644;2024-01-30T10:20:36;10.50;;;4.90;;
18647;SDS011;9453;50.294;18.644;2024-01-30T10:23:03;13.60;;;5.53;;
18647;SDS011;9453;50.294;18.644;2024-01-30T10:25:30;17.23;;;5.30;;
18647;SDS011;9453;50.294;18.644;2024-01-30T10:27:58;12.77;;;5.30;;
18647;SDS011;9453;50.294;18.644;2024-01-30T10:30:27;10.47;;;4.60;;
18647;SDS011;9453;50.294;18.644;2024-01-30T10:32:54;11.23;;;4.80;;
18647;SDS011;9453;50.294;18.644;2024-01-30T10:35:21;14.20;;;5.03;;
18647;SDS011;9453;50.294;18.644;2024-01-30T10:37:48;10.33;;;4.50;;
18647;SDS011;9453;50.294;18.644;2024-01-30T10:40:15;10.93;;;5.00;;
18647;SDS011;9453;50.294;18.644;2024-01-30T10:42:43;8.87;;;4.57;;
18647;SDS011;9453;50.294;18.644;2024-01-30T10:45:10;12.90;;;5.00;;
18647;SDS011;9453;50.294;18.644;2024-01-30T10:47:40;11.17;;;4.73;;
18647;SDS011;9453;50.294;18.644;2024-01-30T10:50:10;11.77;;;5.40;;
18647;SDS011;9453;50.294;18.644;2024-01-30T10:52:37;10.97;;;5.00;;
18647;SDS011;9453;50.294;18.644;2024-01-30T10:55:07;13.83;;;5.00;;
18647;SDS011;9453;50.294;18.644;2024-01-30T10:57:34;12.57;;;5.10;;
18647;SDS011;9453;50.294;18.644;2024-01-30T11:00:02;11.83;;;4.80;;
18647;SDS011;9453;50.294;18.644;2024-01-30T11:02:35;15.03;;;5.37;;
18647;SDS011;9453;50.294;18.644;2024-01-30T11:05:05;15.00;;;5.73;;
18647;SDS011;9453;50.294;18.644;2024-01-30T11:07:33;14.00;;;5.53;;
18647;SDS011;9453;50.294;18.644;2024-01-30T11:10:01;13.57;;;5.67;;
18647;SDS011;9453;50.294;18.644;2024-01-30T11:12:30;12.23;;;5.57;;
18647;SDS011;9453;50.294;18.644;2024-01-30T11:15:02;12.80;;;5.40;;
18647;SDS011;9453;50.294;18.644;2024-01-30T11:17:39;11.70;;;4.73;;
18647;SDS011;9453;50.294;18.644;2024-01-30T11:20:19;14.20;;;4.90;;
18647;SDS011;9453;50.294;18.644;2024-01-30T11:22:48;10.10;;;4.77;;
18647;SDS011;9453;50.294;18.644;2024-01-30T11:25:17;12.47;;;5.17;;
18647;SDS011;9453;50.294;18.644;2024-01-30T11:27:47;13.77;;;5.07;;
18647;SDS011;9453;50.294;18.644;2024-01-30T11:30:22;10.50;;;4.37;;
18647;SDS011;9453;50.294;18.644;2024-01-30T11:33:03;9.07;;;5.07;;
18647;SDS011;9453;50.294;18.644;2024-01-30T11:35:34;15.07;;;5.30;;
18647;SDS011;9453;50.294;18.644;2024-01-30T11:38:02;10.83;;;4.53;;
18647;SDS011;9453;50.294;18.644;2024-01-30T11:40:30;12.17;;;6.10;;
18647;SDS011;9453;50.294;18.644;2024-01-30T11:42:58;11.17;;;5.40;;
18647;SDS011;9453;50.294;18.644;2024-01-30T11:45:26;13.37;;;5.10;;
18647;SDS011;9453;50.294;18.644;2024-01-30T11:47:53;10.43;;;4.80;;
18647;SDS011;9453;50.294;18.644;2024-01-30T11:50:20;10.77;;;4.97;;
18647;SDS011;9453;50.294;18.644;2024-01-30T11:52:49;15.77;;;5.40;;
18647;SDS011;9453;50.294;18.644;2024-01-30T11:55:16;10.73;;;4.27;;
18647;SDS011;9453;50.294;18.644;2024-01-30T11:57:43;11.03;;;4.47;;
18647;SDS011;9453;50.294;18.644;2024-01-30T12:00:14;9.77;;;4.17;;
18647;SDS011;9453;50.294;18.644;2024-01-30T12:02:42;12.27;;;4.40;;
18647;SDS011;9453;50.294;18.644;2024-01-30T12:05:09;11.70;;;5.10;;
18647;SDS011;9453;50.294;18.644;2024-01-30T12:07:36;13.60;;;4.77;;
18647;SDS011;9453;50.294;18.644;2024-01-30T12:10:05;11.13;;;4.50;;
18647;SDS011;9453;50.294;18.644;2024-01-30T12:12:33;11.73;;;4.63;;
18647;SDS011;9453;50.294;18.644;2024-01-30T12:15:00;10.27;;;4.47;;
18647;SDS011;9453;50.294;18.644;2024-01-30T12:17:28;7.97;;;3.87;;
18647;SDS011;9453;50.294;18.644;2024-01-30T12:20:02;9.90;;;4.50;;
18647;SDS011;9453;50.294;18.644;2024-01-30T12:22:31;10.57;;;4.90;;
18647;SDS011;9453;50.294;18.644;2024-01-30T12:25:00;12.00;;;4.60;;
18647;SDS011;9453;50.294;18.644;2024-01-30T12:27:28;10.83;;;4.17;;
18647;SDS011;9453;50.294;18.644;2024-01-30T12:29:55;12.67;;;4.03;;
18647;SDS011;9453;50.294;18.644;2024-01-30T12:32:23;9.47;;;4.13;;
18647;SDS011;9453;50.294;18.644;2024-01-30T12:34:50;11.83;;;4.27;;
18647;SDS011;9453;50.294;18.644;2024-01-30T12:37:20;8.33;;;3.97;;
18647;SDS011;9453;50.294;18.644;2024-01-30T12:39:49;9.77;;;4.40;;
18647;SDS011;9453;50.294;18.644;2024-01-30T12:42:18;8.27;;;4.33;;
18647;SDS011;9453;50.294;18.644;2024-01-30T12:44:47;10.93;;;4.43;;
18647;SDS011;9453;50.294;18.644;2024-01-30T12:47:14;16.53;;;4.63;;
18647;SDS011;9453;50.294;18.644;2024-01-30T12:49:42;10.23;;;4.10;;
18647;SDS011;9453;50.294;18.644;2024-01-30T12:52:09;11.53;;;4.50;;
18647;SDS011;9453;50.294;18.644;2024-01-30T12:54:36;12.03;;;4.47;;
18647;SDS011;9453;50.294;18.644;2024-01-30T12:57:04;11.43;;;4.63;;
18647;SDS011;9453;50.294;18.644;2024-01-30T12:59:31;10.97;;;4.20;;
18647;SDS011;9453;50.294;18.644;2024-01-30T13:02:00;9.97;;;4.27;;
18647;SDS011;9453;50.294;18.644;2024-01-30T13:04:28;10.07;;;4.07;;
18647;SDS011;9453;50.294;18.644;2024-01-30T13:06:55;10.73;;;4.53;;
18647;SDS011;9453;50.294;18.644;2024-01-30T13:09:22;8.40;;;4.13;;
18647;SDS011;9453;50.294;18.644;2024-01-30T13:11:50;9.03;;;3.83;;
18647;SDS011;9453;50.294;18.644;2024-01-30T13:14:17;11.13;;;4.90;;
18647;SDS011;9453;50.294;18.644;2024-01-30T13:16:44;12.77;;;4.37;;
18647;SDS011;9453;50.294;18.644;2024-01-30T13:19:12;10.30;;;4.27;;
18647;SDS011;9453;50.294;18.644;2024-01-30T13:21:39;13.63;;;4.80;;
18647;SDS011;9453;50.294;18.644;2024-01-30T13:24:06;8.63;;;3.67;;
18647;SDS011;9453;50.294;18.644;2024-01-30T13:26:33;10.67;;;4.47;;
18647;SDS011;9453;50.294;18.644;2024-01-30T13:29:00;10.17;;;4.23;;
18647;SDS011;9453;50.294;18.644;2024-01-30T13:31:27;10.90;;;4.90;;
18647;SDS011;9453;50.294;18.644;2024-01-30T13:33:54;14.40;;;4.47;;
18647;SDS011;9453;50.294;18.644;2024-01-30T13:36:22;10.50;;;4.43;;
18647;SDS011;9453;50.294;18.644;2024-01-30T13:38:49;10.33;;;5.00;;
18647;SDS011;9453;50.294;18.644;2024-01-30T13:41:16;8.63;;;4.47;;
18647;SDS011;9453;50.294;18.644;2024-01-30T13:43:43;11.90;;;4.60;;
18647;SDS011;9453;50.294;18.644;2024-01-30T13:46:10;10.93;;;4.40;;
18647;SDS011;9453;50.294;18.644;2024-01-30T13:48:37;7.97;;;4.30;;
18647;SDS011;9453;50.294;18.644;2024-01-30T13:51:04;9.77;;;4.20;;
18647;SDS011;9453;50.294;18.644;2024-01-30T13:53:33;8.27;;;4.13;;
18647;SDS011;9453;50.294;18.644;2024-01-30T13:56:00;9.93;;;4.87;;
18647;SDS011;9453;50.294;18.644;2024-01-30T13:58:27;14.67;;;4.47;;
18647;SDS011;9453;50.294;18.644;2024-01-30T14:00:53;10.37;;;4.50;;
18647;SDS011;9453;50.294;18.644;2024-01-30T14:03:20;9.37;;;4.30;;
18647;SDS011;9453;50.294;18.644;2024-01-30T14:05:47;10.33;;;5.23;;
18647;SDS011;9453;50.294;18.644;2024-01-30T14:08:14;10.13;;;4.67;;
18647;SDS011;9453;50.294;18.644;2024-01-30T14:10:43;10.20;;;4.00;;
18647;SDS011;9453;50.294;18.644;2024-01-30T14:13:10;13.60;;;4.30;;
18647;SDS011;9453;50.294;18.644;2024-01-30T14:15:37;10.03;;;4.43;;
18647;SDS011;9453;50.294;18.644;2024-01-30T14:18:04;10.07;;;5.00;;
18647;SDS011;9453;50.294;18.644;2024-01-30T14:20:33;9.10;;;4.40;;
18647;SDS011;9453;50.294;18.644;2024-01-30T14:23:00;11.00;;;5.27;;
18647;SDS011;9453;50.294;18.644;2024-01-30T14:25:27;8.50;;;4.17;;
18647;SDS011;9453;50.294;18.644;2024-01-30T14:27:55;11.43;;;4.53;;
18647;SDS011;9453;50.294;18.644;2024-01-30T14:30:22;10.00;;;4.63;;
18647;SDS011;9453;50.294;18.644;2024-01-30T14:32:49;10.97;;;4.57;;
18647;SDS011;9453;50.294;18.644;2024-01-30T14:35:16;10.53;;;5.00;;
18647;SDS011;9453;50.294;18.644;2024-01-30T14:37:44;9.00;;;4.37;;
18647;SDS011;9453;50.294;18.644;2024-01-30T14:40:11;8.77;;;3.93;;
18647;SDS011;9453;50.294;18.644;2024-01-30T14:42:38;11.70;;;4.53;;
18647;SDS011;9453;50.294;18.644;2024-01-30T14:45:06;10.50;;;4.63;;
18647;SDS011;9453;50.294;18.644;2024-01-30T14:47:34;11.37;;;4.57;;
18647;SDS011;9453;50.294;18.644;2024-01-30T14:50:01;11.93;;;4.33;;
18647;SDS011;9453;50.294;18.644;2024-01-30T14:52:29;8.67;;;4.40;;
18647;SDS011;9453;50.294;18.644;2024-01-30T14:54:56;9.13;;;4.67;;
18647;SDS011;9453;50.294;18.644;2024-01-30T14:57:23;9.53;;;4.93;;
18647;SDS011;9453;50.294;18.644;2024-01-30T14:59:50;14.43;;;4.80;;
18647;SDS011;9453;50.294;18.644;2024-01-30T15:02:18;9.97;;;4.60;;
18647;SDS011;9453;50.294;18.644;2024-01-30T15:04:45;12.77;;;4.77;;
18647;SDS011;9453;50.294;18.644;2024-01-30T15:07:12;11.60;;;4.93;;
18647;SDS011;9453;50.294;18.644;2024-01-30T15:09:39;13.27;;;5.00;;
18647;SDS011;9453;50.294;18.644;2024-01-30T15:12:06;10.33;;;4.13;;
18647;SDS011;9453;50.294;18.644;2024-01-30T15:14:33;9.77;;;4.77;;
18647;SDS011;9453;50.294;18.644;2024-01-30T15:17:00;11.03;;;4.33;;
18647;SDS011;9453;50.294;18.644;2024-01-30T15:19:28;10.47;;;4.77;;
18647;SDS011;9453;50.294;18.644;2024-01-30T15:21:55;9.53;;;4.70;;
18647;SDS011;9453;50.294;18.644;2024-01-30T15:24:22;8.20;;;4.40;;
18647;SDS011;9453;50.294;18.644;2024-01-30T15:26:50;9.53;;;4.07;;
18647;SDS011;9453;50.294;18.644;2024-01-30T15:29:17;11.30;;;4.83;;
18647;SDS011;9453;50.294;18.644;2024-01-30T15:31:46;11.50;;;4.87;;
18647;SDS011;9453;50.294;18.644;2024-01-30T15:34:13;9.03;;;4.73;;
18647;SDS011;9453;50.294;18.644;2024-01-30T15:36:41;9.27;;;4.83;;
18647;SDS011;9453;50.294;18.644;2024-01-30T15:39:08;11.87;;;5.03;;
18647;SDS011;9453;50.294;18.644;2024-01-30T15:41:36;11.77;;;5.37;;
18647;SDS011;9453;50.294;18.644;2024-01-30T15:44:03;9.57;;;4.67;;
18647;SDS011;9453;50.294;18.644;2024-01-30T15:46:31;10.77;;;5.00;;
18647;SDS011;9453;50.294;18.644;2024-01-30T15:48:58;10.97;;;4.90;;
18647;SDS011;9453;50.294;18.644;2024-01-30T15:51:26;10.43;;;4.63;;
18647;SDS011;9453;50.294;18.644;2024-01-30T15:53:54;9.73;;;4.60;;
18647;SDS011;9453;50.294;18.644;2024-01-30T15:56:21;12.93;;;5.37;;
18647;SDS011;9453;50.294;18.644;2024-01-30T15:58:48;14.17;;;4.60;;
18647;SDS011;9453;50.294;18.644;2024-01-30T16:01:17;12.10;;;5.50;;
18647;SDS011;9453;50.294;18.644;2024-01-30T16:03:44;10.97;;;4.47;;
18647;SDS011;9453;50.294;18.644;2024-01-30T16:06:11;12.83;;;4.83;;
18647;SDS011;9453;50.294;18.644;2024-01-30T16:08:38;11.07;;;4.53;;
18647;SDS011;9453;50.294;18.644;2024-01-30T16:11:08;10.23;;;4.53;;
18647;SDS011;9453;50.294;18.644;2024-01-30T16:13:35;15.00;;;5.30;;
18647;SDS011;9453;50.294;18.644;2024-01-30T16:16:03;20.10;;;7.20;;
18647;SDS011;9453;50.294;18.644;2024-01-30T16:18:30;24.27;;;9.87;;
18647;SDS011;9453;50.294;18.644;2024-01-30T16:20:57;24.67;;;10.30;;
18647;SDS011;9453;50.294;18.644;2024-01-30T16:23:24;28.90;;;9.50;;
18647;SDS011;9453;50.294;18.644;2024-01-30T16:25:52;20.23;;;8.10;;
18647;SDS011;9453;50.294;18.644;2024-01-30T16:28:25;24.93;;;10.47;;
18647;SDS011;9453;50.294;18.644;2024-01-30T16:30:52;25.10;;;10.80;;
18647;SDS011;9453;50.294;18.644;2024-01-30T16:33:19;28.20;;;11.43;;
18647;SDS011;9453;50.294;18.644;2024-01-30T16:35:46;21.70;;;10.47;;
18647;SDS011;9453;50.294;18.644;2024-01-30T16:38:13;20.73;;;8.80;;
18647;SDS011;9453;50.294;18.644;2024-01-30T16:40:40;15.07;;;6.73;;
18647;SDS011;9453;50.294;18.644;2024-01-30T16:43:07;16.77;;;7.10;;
18647;SDS011;9453;50.294;18.644;2024-01-30T16:45:35;18.97;;;7.40;;
18647;SDS011;9453;50.294;18.644;2024-01-30T16:48:02;19.70;;;8.03;;
18647;SDS011;9453;50.294;18.644;2024-01-30T16:50:29;21.20;;;6.57;;
18647;SDS011;9453;50.294;18.644;2024-01-30T16:52:56;11.87;;;5.53;;
18647;SDS011;9453;50.294;18.644;2024-01-30T16:55:23;16.90;;;5.70;;
18647;SDS011;9453;50.294;18.644;2024-01-30T16:57:51;13.27;;;5.27;;
18647;SDS011;9453;50.294;18.644;2024-01-30T17:00:18;18.33;;;5.40;;
18647;SDS011;9453;50.294;18.644;2024-01-30T17:02:47;14.53;;;4.80;;
18647;SDS011;9453;50.294;18.644;2024-01-30T17:05:14;13.13;;;5.20;;
18647;SDS011;9453;50.294;18.644;2024-01-30T17:07:40;12.73;;;4.50;;
18647;SDS011;9453;50.294;18.644;2024-01-30T17:10:07;11.13;;;4.47;;
18647;SDS011;9453;50.294;18.644;2024-01-30T17:12:34;11.60;;;4.47;;
18647;SDS011;9453;50.294;18.644;2024-01-30T17:15:01;10.77;;;4.60;;
18647;SDS011;9453;50.294;18.644;2024-01-30T17:17:29;12.00;;;4.73;;
18647;SDS011;9453;50.294;18.644;2024-01-30T17:19:57;11.17;;;4.37;;
18647;SDS011;9453;50.294;18.644;2024-01-30T17:22:24;16.37;;;4.80;;
18647;SDS011;9453;50.294;18.644;2024-01-30T17:24:51;15.13;;;5.77;;
18647;SDS011;9453;50.294;18.644;2024-01-30T17:27:18;10.57;;;4.90;;
18647;SDS011;9453;50.294;18.644;2024-01-30T17:29:45;12.10;;;4.17;;
18647;SDS011;9453;50.294;18.644;2024-01-30T17:32:12;11.97;;;4.23;;
18647;SDS011;9453;50.294;18.644;2024-01-30T17:34:39;11.97;;;3.90;;
18647;SDS011;9453;50.294;18.644;2024-01-30T17:37:08;13.97;;;4.47;;
18647;SDS011;9453;50.294;18.644;2024-01-30T17:39:35;10.00;;;3.97;;
18647;SDS011;9453;50.294;18.644;2024-01-30T17:42:02;10.03;;;5.00;;
18647;SDS011;9453;50.294;18.644;2024-01-30T17:44:29;11.93;;;4.93;;
18647;SDS011;9453;50.294;18.644;2024-01-30T17:46:58;15.47;;;4.50;;
18647;SDS011;9453;50.294;18.644;2024-01-30T17:49:24;8.43;;;3.80;;
18647;SDS011;9453;50.294;18.644;2024-01-30T17:51:54;8.40;;;3.63;;
18647;SDS011;9453;50.294;18.644;2024-01-30T17:54:23;8.47;;;3.57;;
18647;SDS011;9453;50.294;18.644;2024-01-30T17:56:49;12.40;;;4.23;;
18647;SDS011;9453;50.294;18.644;2024-01-30T17:59:16;10.40;;;4.20;;
18647;SDS011;9453;50.294;18.644;2024-01-30T18:01:46;9.77;;;4.20;;
18647;SDS011;9453;50.294;18.644;2024-01-30T18:04:13;10.90;;;3.97;;
18647;SDS011;9453;50.294;18.644;2024-01-30T18:06:42;11.83;;;4.40;;
18647;SDS011;9453;50.294;18.644;2024-01-30T18:09:10;12.17;;;4.87;;
18647;SDS011;9453;50.294;18.644;2024-01-30T18:11:38;9.43;;;4.20;;
18647;SDS011;9453;50.294;18.644;2024-01-30T18:14:05;9.43;;;3.70;;
18647;SDS011;9453;50.294;18.644;2024-01-30T18:16:32;8.30;;;3.70;;
18647;SDS011;9453;50.294;18.644;2024-01-30T18:18:59;11.37;;;4.13;;
18647;SDS011;9453;50.294;18.644;2024-01-30T18:21:26;11.77;;;3.83;;
18647;SDS011;9453;50.294;18.644;2024-01-30T18:23:52;8.37;;;3.80;;
18647;SDS011;9453;50.294;18.644;2024-01-30T18:26:19;10.20;;;3.83;;
18647;SDS011;9453;50.294;18.644;2024-01-30T18:28:48;7.40;;;3.53;;
18647;SDS011;9453;50.294;18.644;2024-01-30T18:31:15;8.23;;;3.80;;
18647;SDS011;9453;50.294;18.644;2024-01-30T18:33:42;6.67;;;3.27;;
18647;SDS011;9453;50.294;18.644;2024-01-30T18:36:10;12.70;;;3.67;;
18647;SDS011;9453;50.294;18.644;2024-01-30T18:38:37;6.73;;;3.27;;
18647;SDS011;9453;50.294;18.644;2024-01-30T18:41:04;10.77;;;3.43;;
18647;SDS011;9453;50.294;18.644;2024-01-30T18:43:31;8.90;;;3.97;;
18647;SDS011;9453;50.294;18.644;2024-01-30T18:46:01;8.73;;;3.70;;
18647;SDS011;9453;50.294;18.644;2024-01-30T18:48:28;7.40;;;3.20;;
18647;SDS011;9453;50.294;18.644;2024-01-30T18:50:55;7.63;;;3.43;;
18647;SDS011;9453;50.294;18.644;2024-01-30T18:53:24;11.87;;;3.60;;
18647;SDS011;9453;50.294;18.644;2024-01-30T18:55:53;10.97;;;3.57;;
18647;SDS011;9453;50.294;18.644;2024-01-30T18:58:20;8.27;;;3.50;;
18647;SDS011;9453;50.294;18.644;2024-01-30T19:00:47;7.90;;;3.30;;
18647;SDS011;9453;50.294;18.644;2024-01-30T19:03:15;9.13;;;3.67;;
18647;SDS011;9453;50.294;18.644;2024-01-30T19:05:43;8.67;;;3.93;;
18647;SDS011;9453;50.294;18.644;2024-01-30T19:08:11;9.37;;;3.70;;
18647;SDS011;9453;50.294;18.644;2024-01-30T19:10:38;7.17;;;3.23;;
18647;SDS011;9453;50.294;18.644;2024-01-30T19:13:05;11.13;;;4.00;;
18647;SDS011;9453;50.294;18.644;2024-01-30T19:15:33;10.30;;;3.90;;
18647;SDS011;9453;50.294;18.644;2024-01-30T19:18:00;7.33;;;3.60;;
18647;SDS011;9453;50.294;18.644;2024-01-30T19:20:29;8.20;;;3.10;;
18647;SDS011;9453;50.294;18.644;2024-01-30T19:22:56;11.03;;;3.80;;
18647;SDS011;9453;50.294;18.644;2024-01-30T19:25:23;8.70;;;3.70;;
18647;SDS011;9453;50.294;18.644;2024-01-30T19:27:50;10.93;;;3.70;;
18647;SDS011;9453;50.294;18.644;2024-01-30T19:30:17;11.13;;;3.50;;
18647;SDS011;9453;50.294;18.644;2024-01-30T19:32:44;10.17;;;4.03;;
18647;SDS011;9453;50.294;18.644;2024-01-30T19:35:12;10.67;;;3.73;;
18647;SDS011;9453;50.294;18.644;2024-01-30T19:37:40;13.00;;;3.93;;
18647;SDS011;9453;50.294;18.644;2024-01-30T19:40:07;6.97;;;3.47;;
18647;SDS011;9453;50.294;18.644;2024-01-30T19:42:35;8.87;;;3.97;;